Time;durP1;ratioP1;P1;durP2;ratioP2;P2;SDS_P1;SDS_P2;PMS_P1;PMS_P2;Temp;Humidity;BMP_temperature;BMP_pressure;BME280_temperature;BME280_humidity;BME280_pressure;Samples;Min_cycle;Max_cycle;Signal;HPM_P1;HPM_P2
2021/04/28 00:02:47;;;;;;;3.45;1.38;;;;;;;19.32;23.02;100817.13;5075459;28;20505;-71
2021/04/28 00:05:36;;;;;;;3.45;1.20;;;;;;;19.40;22.89;100816.09;5075872;28;20044;-71
2021/04/28 00:08:23;;;;;;;2.30;1.20;;;;;;;19.43;22.77;100820.47;5076973;28;20475;-71
2021/04/28 00:11:11;;;;;;;3.30;1.45;;;;;;;19.42;22.87;100821.41;5075927;28;20131;-70
2021/04/28 00:13:58;;;;;;;5.75;1.40;;;;;;;19.37;23.03;100832.19;5076959;28;20175;-71
2021/04/28 00:16:47;;;;;;;3.47;1.30;;;;;;;19.36;22.95;100819.72;5075529;28;20467;-70
2021/04/28 00:19:34;;;;;;;4.13;2.03;;;;;;;19.31;23.02;100821.59;5077244;28;20108;-71
2021/04/28 00:22:22;;;;;;;2.97;1.13;;;;;;;19.27;23.12;100808.31;5075987;28;20049;-71
2021/04/28 00:25:11;;;;;;;3.95;0.90;;;;;;;19.32;22.79;100818.03;5075700;28;20060;-71
2021/04/28 00:27:59;;;;;;;3.17;1.40;;;;;;;19.38;22.38;100817.00;5076318;28;20072;-71
2021/04/28 00:30:47;;;;;;;3.05;1.30;;;;;;;19.41;22.19;100819.66;5077552;28;20045;-71
2021/04/28 00:33:35;;;;;;;4.55;1.10;;;;;;;19.44;22.10;100815.09;5061625;28;20044;-71
2021/04/28 00:36:23;;;;;;;2.60;1.05;;;;;;;19.42;22.12;100802.66;5076839;28;20064;-71
2021/04/28 00:39:10;;;;;;;4.15;1.73;;;;;;;19.34;22.46;100789.44;5076159;28;20397;-71
2021/04/28 00:41:58;;;;;;;5.53;1.13;;;;;;;19.31;22.53;100778.78;5074672;28;20473;-71
2021/04/28 00:44:46;;;;;;;1.98;1.55;;;;;;;19.27;22.56;100770.84;5075184;28;20080;-71
2021/04/28 00:47:33;;;;;;;2.08;1.15;;;;;;;19.25;22.39;100760.16;5074957;28;20082;-71
2021/04/28 00:50:27;;;;;;;5.35;1.20;;;;;;;19.28;22.21;100745.84;5075237;28;20071;-71
2021/04/28 00:53:17;;;;;;;2.43;1.30;;;;;;;19.31;21.86;100741.28;5075369;28;20618;-71
2021/04/28 00:56:05;;;;;;;3.03;1.17;;;;;;;19.39;21.44;100743.81;5075825;28;20326;-70
2021/04/28 00:58:52;;;;;;;7.45;1.13;;;;;;;19.44;21.10;100747.28;5075621;28;20090;-70
2021/04/28 01:01:40;;;;;;;2.17;1.00;;;;;;;19.53;20.43;100759.63;5061261;28;20495;-71
2021/04/28 01:04:27;;;;;;;3.70;1.00;;;;;;;19.62;20.06;100759.44;5075181;28;20064;-70
2021/04/28 01:07:16;;;;;;;4.30;1.00;;;;;;;19.73;19.33;100752.03;5075283;28;20168;-71
2021/04/28 01:10:07;;;;;;;2.22;0.98;;;;;;;19.84;18.73;100744.63;5075188;28;20060;-71
2021/04/28 01:12:55;;;;;;;3.25;1.00;;;;;;;19.91;18.52;100735.56;5074512;28;20037;-70
2021/04/28 01:15:43;;;;;;;2.92;1.10;;;;;;;19.99;18.56;100736.25;5076321;28;20090;-70
2021/04/28 01:18:30;;;;;;;3.60;0.80;;;;;;;19.98;18.75;100729.13;5074532;28;20048;-70
2021/04/28 01:21:17;;;;;;;4.22;1.20;;;;;;;19.94;18.75;100732.81;5074599;28;20075;-71
2021/04/28 01:24:08;;;;;;;1.83;1.08;;;;;;;19.91;18.72;100748.94;5074428;28;20094;-70
2021/04/28 01:27:01;;;;;;;2.15;0.82;;;;;;;19.90;18.60;100756.09;5073683;28;20068;-71
2021/04/28 01:29:49;;;;;;;1.10;0.70;;;;;;;19.82;18.84;100766.09;5074731;28;20463;-70
2021/04/28 01:32:41;;;;;;;4.70;1.35;;;;;;;19.77;19.14;100772.47;5074706;28;20131;-71
2021/04/28 01:35:29;;;;;;;4.90;1.10;;;;;;;19.70;19.28;100793.16;5073715;28;20127;-70
2021/04/28 01:38:16;;;;;;;2.13;0.90;;;;;;;19.69;19.23;100777.16;5073536;28;20070;-70
2021/04/28 01:41:06;;;;;;;1.75;0.88;;;;;;;19.70;19.39;100754.78;5074314;28;20135;-71
2021/04/28 01:43:54;;;;;;;1.05;0.77;;;;;;;19.67;19.51;100761.09;5075429;28;20147;-71
2021/04/28 01:46:43;;;;;;;1.63;0.73;;;;;;;19.69;19.58;100764.59;5060068;28;20044;-71
2021/04/28 01:49:32;;;;;;;1.33;0.90;;;;;;;19.68;20.00;100772.69;5075718;28;20041;-70
2021/04/28 01:52:20;;;;;;;3.35;0.93;;;;;;;19.66;20.20;100780.75;5075681;28;20056;-71
2021/04/28 01:55:09;;;;;;;3.38;1.17;;;;;;;19.66;20.42;100795.94;5074156;28;20049;-71
2021/04/28 01:58:01;;;;;;;5.10;1.45;;;;;;;19.64;20.82;100785.25;5073863;28;20105;-71
2021/04/28 02:00:50;;;;;;;2.20;1.20;;;;;;;19.60;21.37;100772.88;5074340;28;20131;-71
2021/04/28 02:03:38;;;;;;;2.55;1.10;;;;;;;19.55;21.90;100771.19;5073465;28;20098;-71
2021/04/28 02:06:25;;;;;;;2.13;1.10;;;;;;;19.50;22.77;100768.59;5074751;28;20055;-71
2021/04/28 02:09:13;;;;;;;4.65;1.50;;;;;;;19.45;23.58;100786.53;5074290;28;20547;-71
2021/04/28 02:12:00;;;;;;;3.13;1.27;;;;;;;19.48;23.95;100790.06;5074930;28;20603;-71
2021/04/28 02:14:51;;;;;;;2.75;1.33;;;;;;;19.45;24.64;100802.59;5073557;28;20548;-71
2021/04/28 02:17:39;;;;;;;5.85;1.60;;;;;;;19.38;25.83;100799.16;5074567;28;20143;-71
2021/04/28 02:20:28;;;;;;;4.82;1.52;;;;;;;19.30;27.58;100798.41;5074619;28;20090;-71
2021/04/28 02:23:15;;;;;;;4.97;2.00;;;;;;;19.25;28.85;100796.75;5073467;28;20036;-71
2021/04/28 02:26:03;;;;;;;3.38;1.15;;;;;;;19.20;30.28;100804.88;5073383;28;20131;-71
2021/04/28 02:28:51;;;;;;;5.28;1.98;;;;;;;19.22;32.69;100794.16;5073575;28;20183;-71
2021/04/28 02:31:40;;;;;;;4.13;1.70;;;;;;;19.19;34.09;100784.38;5073033;28;20070;-71
2021/04/28 02:34:27;;;;;;;5.57;1.65;;;;;;;19.17;34.62;100787.97;5074578;28;20127;-71
2021/04/28 02:37:16;;;;;;;6.35;1.80;;;;;;;19.14;35.13;100798.75;5073441;28;20135;-71
2021/04/28 02:40:08;;;;;;;3.83;1.95;;;;;;;19.13;36.88;100807.69;5073203;28;20086;-70
2021/04/28 02:42:56;;;;;;;5.30;1.65;;;;;;;19.09;37.58;100817.59;5073451;28;20060;-71
2021/04/28 02:45:45;;;;;;;4.80;1.88;;;;;;;19.07;38.03;100827.44;5054555;28;20068;-71
2021/04/28 02:48:34;;;;;;;5.47;1.90;;;;;;;19.04;38.95;100839.06;5053896;28;20147;-70
2021/04/28 02:51:21;;;;;;;4.40;1.70;;;;;;;19.01;39.03;100848.94;5053578;28;20056;-71
2021/04/28 02:54:09;;;;;;;5.00;1.80;;;;;;;19.00;39.47;100847.16;5053716;28;20127;-72
2021/04/28 02:56:57;;;;;;;4.25;1.55;;;;;;;18.98;39.77;100847.19;5054528;28;20064;-71
2021/04/28 02:59:44;;;;;;;4.70;1.70;;;;;;;18.97;39.88;100853.44;5039496;28;20136;-71
2021/04/28 03:02:32;;;;;;;4.38;1.60;;;;;;;18.97;40.17;100857.94;5054147;28;20445;-70
2021/04/28 03:05:22;;;;;;;4.85;1.90;;;;;;;18.94;40.85;100837.47;5053666;28;20071;-71
2021/04/28 03:08:10;;;;;;;6.72;1.92;;;;;;;18.89;41.52;100825.09;5053861;28;20136;-71
2021/04/28 03:10:58;;;;;;;3.17;1.50;;;;;;;18.86;41.47;100834.03;5053082;28;20069;-71
2021/04/28 03:13:47;;;;;;;8.02;1.90;;;;;;;18.85;41.27;100844.75;5052475;28;20076;-71
2021/04/28 03:16:34;;;;;;;4.35;2.00;;;;;;;18.83;41.73;100854.63;5052671;28;20608;-71
2021/04/28 03:19:22;;;;;;;6.03;1.85;;;;;;;18.80;42.38;100849.31;5053566;28;20156;-71
2021/04/28 03:22:11;;;;;;;2.83;1.60;;;;;;;18.78;42.90;100841.28;5054415;28;20080;-71
2021/04/28 03:24:59;;;;;;;4.38;1.50;;;;;;;18.74;42.88;100844.94;5053929;28;20091;-71
2021/04/28 03:27:47;;;;;;;5.32;1.65;;;;;;;18.74;42.55;100820.00;5054333;28;20179;-71
2021/04/28 03:30:34;;;;;;;9.18;2.42;;;;;;;18.71;42.80;100819.13;5053981;28;20048;-71
2021/04/28 03:33:22;;;;;;;4.15;1.77;;;;;;;18.67;43.16;100805.84;5053479;28;20155;-71
2021/04/28 03:36:10;;;;;;;3.55;1.80;;;;;;;18.64;43.28;100809.44;5055480;28;20124;-71
2021/04/28 03:38:58;;;;;;;3.47;1.80;;;;;;;18.64;43.09;100803.22;5038981;28;20052;-71
2021/04/28 03:41:46;;;;;;;4.93;2.15;;;;;;;18.64;43.00;100816.59;5038429;28;20551;-71
2021/04/28 03:44:34;;;;;;;4.20;2.20;;;;;;;18.59;43.23;100816.66;5063172;28;20147;-70
2021/04/28 03:47:21;;;;;;;4.32;1.95;;;;;;;18.59;43.58;100815.75;5073989;28;20174;-71
2021/04/28 03:50:11;;;;;;;4.35;2.00;;;;;;;18.59;43.58;100813.97;5073982;28;20044;-71
2021/04/28 03:52:58;;;;;;;5.93;1.67;;;;;;;18.63;42.79;100804.13;5073378;28;20472;-70
2021/04/28 03:55:47;;;;;;;6.70;2.33;;;;;;;18.69;41.95;100809.38;5074193;28;20048;-70
2021/04/28 03:58:35;;;;;;;6.15;2.35;;;;;;;18.77;41.24;100796.75;5072903;28;20068;-70
2021/04/28 04:01:22;;;;;;;5.18;2.03;;;;;;;18.85;40.75;100793.94;5073007;28;20102;-71
2021/04/28 04:04:10;;;;;;;4.82;1.85;;;;;;;18.95;40.08;100775.03;5073667;28;20036;-71
2021/04/28 04:06:57;;;;;;;4.70;1.80;;;;;;;19.08;39.15;100763.19;5073629;28;20045;-71
2021/04/28 04:09:45;;;;;;;3.97;1.60;;;;;;;19.31;38.05;100769.84;5071913;28;20106;-71
2021/04/28 04:12:34;;;;;;;2.45;1.20;;;;;;;19.52;37.46;100766.78;5071886;28;20140;-71
2021/04/28 04:15:21;;;;;;;5.28;1.55;;;;;;;19.71;37.31;100786.91;5073797;28;20041;-70
2021/04/28 04:18:08;;;;;;;5.10;1.65;;;;;;;19.94;36.99;100793.56;5072968;28;20052;-71
2021/04/28 04:20:55;;;;;;;5.78;1.60;;;;;;;20.23;36.44;100786.59;5072944;28;20132;-71
2021/04/28 04:23:42;;;;;;;4.20;1.08;;;;;;;20.53;35.84;100793.06;5073423;28;20496;-70
2021/04/28 04:26:29;;;;;;;3.45;1.30;;;;;;;20.87;34.56;100816.38;5073014;28;20048;-71
2021/04/28 04:29:18;;;;;;;4.53;0.95;;;;;;;21.19;33.34;100826.28;5076470;28;20079;-71
2021/04/28 04:32:06;;;;;;;4.07;1.20;;;;;;;21.45;32.64;100843.47;5077108;28;20040;-70
2021/04/28 04:34:54;;;;;;;3.85;1.15;;;;;;;21.59;31.91;100852.94;5076811;28;20123;-71
2021/04/28 04:37:42;;;;;;;4.82;1.20;;;;;;;21.67;31.82;100841.03;5062393;28;20048;-71
2021/04/28 04:40:30;;;;;;;3.90;1.48;;;;;;;21.81;32.08;100825.38;5060913;28;20044;-71
2021/04/28 04:43:18;;;;;;;7.55;1.85;;;;;;;21.98;31.40;100829.44;5061284;28;20041;-71
2021/04/28 04:46:06;;;;;;;6.13;1.20;;;;;;;22.11;30.91;100830.81;5062116;28;20171;-71
2021/04/28 04:48:53;;;;;;;5.90;1.45;;;;;;;22.11;31.21;100831.69;5075784;28;20062;-71
2021/04/28 04:51:42;;;;;;;4.82;1.50;;;;;;;22.11;31.02;100825.44;5075485;28;20561;-71
2021/04/28 04:54:29;;;;;;;5.97;1.27;;;;;;;22.06;30.72;100816.59;5076187;28;20067;-71
2021/04/28 04:57:16;;;;;;;4.95;1.40;;;;;;;22.02;29.69;100813.16;5076938;28;20162;-71
2021/04/28 05:00:05;;;;;;;4.30;1.30;;;;;;;21.97;29.66;100844.66;5075560;28;20079;-71
2021/04/28 05:02:53;;;;;;;4.30;0.90;;;;;;;21.90;29.28;100867.25;5076200;28;20622;-71
2021/04/28 05:05:40;;;;;;;7.43;1.20;;;;;;;21.88;29.23;100871.78;5076484;28;20148;-72
2021/04/28 05:08:28;;;;;;;6.00;1.60;;;;;;;21.85;28.65;100866.50;5075542;28;20091;-72
2021/04/28 05:11:15;;;;;;;6.47;1.38;;;;;;;21.86;28.63;100838.69;5076260;28;20544;-72
2021/04/28 05:14:02;;;;;;;5.03;1.40;;;;;;;21.85;28.79;100820.81;5075521;28;20131;-71
2021/04/28 05:16:50;;;;;;;7.05;1.50;;;;;;;21.96;29.29;100829.47;5076224;28;20041;-72
2021/04/28 05:19:39;;;;;;;3.97;1.67;;;;;;;22.08;29.11;100837.16;5075685;28;20064;-71
2021/04/28 05:22:28;;;;;;;7.15;1.95;;;;;;;22.36;28.27;100844.38;5075633;28;20082;-71
2021/04/28 05:25:16;;;;;;;2.97;1.52;;;;;;;22.79;26.35;100817.84;5075856;28;20040;-71
2021/04/28 05:28:03;;;;;;;3.22;1.27;;;;;;;23.07;25.23;100820.47;5074614;28;20131;-71
2021/04/28 05:30:51;;;;;;;6.93;1.50;;;;;;;23.33;25.75;100822.25;5075159;28;20041;-71
2021/04/28 05:33:40;;;;;;;4.65;1.42;;;;;;;23.94;27.59;100826.28;5074688;28;20045;-71
2021/04/28 05:36:28;;;;;;;6.05;1.33;;;;;;;24.55;27.60;100804.94;5075597;28;20041;-71
2021/04/28 05:39:15;;;;;;;5.63;1.60;;;;;;;24.80;27.05;100815.63;5075120;28;20136;-71
2021/04/28 05:42:03;;;;;;;4.88;1.50;;;;;;;25.06;26.48;100819.94;5075626;28;20143;-71
2021/04/28 05:44:52;;;;;;;7.38;1.77;;;;;;;25.24;26.11;100789.41;5073844;28;20407;-71
2021/04/28 05:47:39;;;;;;;4.35;1.58;;;;;;;25.31;26.26;100794.47;5074002;28;20036;-71
2021/04/28 05:50:27;;;;;;;3.78;1.25;;;;;;;25.75;25.97;100799.72;5074372;28;20457;-72
2021/04/28 05:53:15;;;;;;;6.13;1.02;;;;;;;25.74;25.73;100803.34;5075039;28;20068;-71
2021/04/28 05:56:04;;;;;;;4.20;1.25;;;;;;;25.58;25.79;100827.53;5075515;28;20190;-72
2021/04/28 05:58:52;;;;;;;3.78;1.23;;;;;;;25.91;25.10;100830.53;5074618;28;20073;-71
2021/04/28 06:01:39;;;;;;;6.85;1.48;;;;;;;25.78;25.68;100819.41;5073003;28;20127;-71
2021/04/28 06:04:27;;;;;;;6.60;1.67;;;;;;;25.93;25.93;100804.25;5073818;28;20082;-71
2021/04/28 06:07:15;;;;;;;6.88;2.20;;;;;;;25.99;26.22;100809.38;5073131;28;20079;-71
2021/04/28 06:10:05;;;;;;;4.32;1.42;;;;;;;26.05;26.33;100810.94;5073033;28;20072;-71
2021/04/28 06:12:52;;;;;;;9.50;1.58;;;;;;;26.01;26.32;100788.53;5074962;28;20045;-71
2021/04/28 06:15:40;;;;;;;3.85;1.25;;;;;;;25.81;26.31;100818.34;5073240;28;20139;-72
2021/04/28 06:18:27;;;;;;;4.72;1.05;;;;;;;25.62;26.03;100828.28;5072912;28;20539;-72
2021/04/28 06:21:14;;;;;;;4.38;1.40;;;;;;;25.44;26.21;100853.41;5074737;28;20532;-72
2021/04/28 06:24:03;;;;;;;6.80;1.15;;;;;;;25.33;25.67;100807.94;5073159;28;20047;-71
2021/04/28 06:26:51;;;;;;;4.10;1.38;;;;;;;25.49;25.54;100795.47;5073323;28;20484;-71
2021/04/28 06:29:39;;;;;;;6.43;1.27;;;;;;;25.89;25.70;100790.94;5073323;28;20471;-70
2021/04/28 06:32:26;;;;;;;4.97;1.58;;;;;;;26.28;25.40;100842.34;5072820;28;20127;-71
2021/04/28 06:35:14;;;;;;;6.65;1.55;;;;;;;26.75;25.38;100854.44;5073144;28;20122;-72
2021/04/28 06:38:01;;;;;;;4.70;1.42;;;;;;;26.59;25.10;100799.25;5072998;28;20135;-71
2021/04/28 06:40:48;;;;;;;5.53;0.93;;;;;;;26.28;24.99;100812.56;5073055;28;20155;-72
2021/04/28 06:43:36;;;;;;;6.13;1.33;;;;;;;26.14;24.91;100857.38;5072803;28;20127;-71
2021/04/28 06:46:24;;;;;;;5.32;1.00;;;;;;;26.14;24.69;100865.50;5073079;28;20064;-71
2021/04/28 06:49:11;;;;;;;9.50;1.20;;;;;;;26.42;24.41;100872.34;5072747;28;20140;-72
2021/04/28 06:51:58;;;;;;;8.05;1.42;;;;;;;27.20;23.99;100896.47;5072508;28;20166;-71
2021/04/28 06:54:46;;;;;;;11.23;2.00;;;;;;;27.51;23.16;100914.72;5072848;28;20174;-71
2021/04/28 06:57:33;;;;;;;5.93;1.75;;;;;;;27.44;23.36;100922.31;5073943;28;20149;-71
2021/04/28 07:00:23;;;;;;;6.47;1.55;;;;;;;27.41;23.56;100940.59;5072753;28;20445;-71
2021/04/28 07:03:10;;;;;;;4.95;1.05;;;;;;;27.26;23.32;100963.94;5072840;28;20061;-71
2021/04/28 07:05:58;;;;;;;6.70;1.23;;;;;;;27.37;23.13;100977.84;5072146;28;20037;-71
2021/04/28 07:08:46;;;;;;;5.40;1.00;;;;;;;27.82;22.62;101007.19;5072487;28;20048;-71
2021/04/28 07:11:34;;;;;;;5.40;1.27;;;;;;;28.23;22.80;101031.28;5071916;28;20097;-71
2021/04/28 07:14:21;;;;;;;8.38;1.95;;;;;;;27.81;22.93;101013.59;5072949;28;20127;-72
2021/04/28 07:17:10;;;;;;;9.40;2.28;;;;;;;27.43;23.62;101025.47;5072878;28;20051;-72
2021/04/28 07:19:58;;;;;;;6.93;1.70;;;;;;;27.15;24.56;101032.25;5072992;28;20122;-73
2021/04/28 07:22:46;;;;;;;8.15;1.90;;;;;;;26.92;25.20;101010.78;5073180;28;20135;-72
2021/04/28 07:25:33;;;;;;;7.80;1.63;;;;;;;26.68;25.29;100976.72;5072325;28;20043;-71
2021/04/28 07:28:21;;;;;;;9.13;2.20;;;;;;;26.41;25.77;100968.94;5072296;28;20139;-71
2021/04/28 07:31:09;;;;;;;5.13;1.58;;;;;;;26.31;25.77;100975.75;5072218;28;20052;-70
2021/04/28 07:33:57;;;;;;;5.57;1.40;;;;;;;26.28;25.94;100983.09;5073024;28;20484;-71
2021/04/28 07:36:45;;;;;;;7.25;1.55;;;;;;;26.43;25.63;100961.63;5073326;28;20068;-72
2021/04/28 07:39:33;;;;;;;5.95;1.45;;;;;;;27.28;25.27;100967.44;5058372;28;20048;-71
2021/04/28 07:42:20;;;;;;;7.82;1.58;;;;;;;28.17;24.74;100953.75;5058776;28;20505;-72
2021/04/28 07:45:10;;;;;;;5.57;1.58;;;;;;;28.85;24.28;100957.22;5073157;28;20488;-72
2021/04/28 07:47:57;;;;;;;6.25;1.60;;;;;;;28.68;24.29;100965.44;5071878;28;20131;-72
2021/04/28 07:50:46;;;;;;;6.65;1.48;;;;;;;28.16;24.98;100992.72;5071945;28;20083;-71
2021/04/28 07:53:33;;;;;;;2.92;1.38;;;;;;;27.70;24.76;101024.09;5073266;28;20052;-71
2021/04/28 07:56:21;;;;;;;4.60;1.73;;;;;;;27.19;24.94;101000.44;5072124;28;20132;-71
2021/04/28 07:59:08;;;;;;;8.05;1.65;;;;;;;26.81;24.71;101011.28;5058636;28;20131;-71
2021/04/28 08:01:55;;;;;;;8.43;1.45;;;;;;;26.67;24.30;101053.50;5072448;28;20203;-71
2021/04/28 08:04:43;;;;;;;3.45;1.30;;;;;;;26.77;23.88;101082.84;5075613;28;20052;-71
2021/04/28 08:07:31;;;;;;;6.90;2.03;;;;;;;26.98;23.46;101062.00;5075861;28;20127;-71
2021/04/28 08:10:19;;;;;;;3.38;1.73;;;;;;;27.36;22.99;101022.19;5077444;28;20085;-71
2021/04/28 08:13:09;;;;;;;6.55;2.22;;;;;;;27.35;22.84;101034.00;5077006;28;20443;-72
2021/04/28 08:15:57;;;;;;;4.22;1.52;;;;;;;27.13;23.15;101033.28;5075978;28;20047;-71
2021/04/28 08:18:45;;;;;;;6.43;2.17;;;;;;;27.00;23.92;101026.69;5077089;28;20037;-72
2021/04/28 08:21:33;;;;;;;4.95;1.85;;;;;;;27.02;23.95;101025.69;5076215;28;20074;-71
2021/04/28 08:24:21;;;;;;;4.78;2.30;;;;;;;27.01;24.05;101033.88;5076122;28;20178;-71
2021/04/28 08:27:09;;;;;;;6.22;1.83;;;;;;;27.02;23.93;101030.22;5077676;28;20073;-72
2021/04/28 08:29:56;;;;;;;6.43;2.10;;;;;;;27.18;24.31;101009.50;5075334;28;20160;-71
2021/04/28 08:32:44;;;;;;;4.82;2.53;;;;;;;27.67;24.08;101014.28;5074754;28;20037;-72
2021/04/28 08:35:31;;;;;;;5.97;2.10;;;;;;;28.46;24.29;101010.09;5075677;28;20182;-71
2021/04/28 08:38:19;;;;;;;5.78;2.78;;;;;;;29.00;23.71;101015.31;5075584;28;20114;-71
2021/04/28 08:41:11;;;;;;;6.28;1.58;;;;;;;28.62;23.98;101026.41;5075369;28;20032;-71
2021/04/28 08:43:59;;;;;;;6.95;1.58;;;;;;;28.16;24.23;101022.59;5075749;28;20076;-71
2021/04/28 08:46:47;;;;;;;4.68;1.52;;;;;;;28.37;24.41;101012.44;5075893;28;20051;-72
2021/04/28 08:49:35;;;;;;;4.55;1.58;;;;;;;28.52;24.52;101011.59;5076338;28;20048;-71
2021/04/28 08:52:24;;;;;;;7.28;2.08;;;;;;;28.89;24.93;101002.28;5061953;28;20044;-72
2021/04/28 08:55:13;;;;;;;4.75;1.67;;;;;;;29.43;25.29;101006.44;5076554;28;20491;-73
2021/04/28 08:58:01;;;;;;;6.18;2.10;;;;;;;29.48;25.62;101015.19;5076093;28;20170;-72
2021/04/28 09:00:49;;;;;;;7.43;2.22;;;;;;;29.63;25.91;101011.56;5076499;28;20393;-72
2021/04/28 09:03:41;;;;;;;8.25;2.28;;;;;;;29.64;25.87;101009.72;5074890;28;20626;-74
2021/04/28 09:06:31;;;;;;;8.02;2.67;;;;;;;29.40;26.27;101025.69;5076536;28;20068;-75
2021/04/28 09:09:20;;;;;;;7.88;2.75;;;;;;;29.13;26.37;101021.78;5074970;28;20044;-77
2021/04/28 09:12:12;;;;;;;8.00;2.40;;;;;;;28.93;26.18;101012.94;5061157;28;20508;-75
2021/04/28 09:15:01;;;;;;;7.93;2.78;;;;;;;29.00;26.02;101018.03;5060150;28;20060;-76
2021/04/28 09:17:53;;;;;;;5.20;2.03;;;;;;;29.15;25.70;101028.88;5075815;28;20068;-74
2021/04/28 09:20:45;;;;;;;6.68;2.20;;;;;;;29.30;25.62;101033.44;5074897;28;20182;-76
2021/04/28 09:23:36;;;;;;;7.22;2.13;;;;;;;29.03;25.49;101021.44;5061146;28;20047;-75
2021/04/28 09:26:24;;;;;;;9.13;1.90;;;;;;;28.66;25.96;101005.41;5060411;28;20143;-74
2021/04/28 09:29:17;;;;;;;8.20;2.20;;;;;;;28.43;26.40;101010.25;5074923;28;20497;-74
2021/04/28 09:32:09;;;;;;;7.05;1.77;;;;;;;28.68;26.61;101007.09;5060614;28;20518;-74
2021/04/28 09:35:12;;;;;;;6.43;1.80;;;;;;;29.46;26.25;101005.38;5074299;28;20132;-74
2021/04/28 09:38:03;;;;;;;6.28;1.58;;;;;;;30.18;24.58;100993.75;5073954;28;20045;-74
2021/04/28 09:40:55;;;;;;;3.72;1.90;;;;;;;30.65;23.93;101012.59;5075557;28;20057;-74
2021/04/28 09:43:43;;;;;;;7.15;1.92;;;;;;;30.64;23.53;101003.56;5073847;28;20099;-74
2021/04/28 09:46:30;;;;;;;8.43;2.95;;;;;;;30.84;23.63;100992.22;5074379;28;20041;-73
2021/04/28 09:49:18;;;;;;;5.35;1.85;;;;;;;31.21;23.18;100984.38;5074121;28;20131;-74
2021/04/28 09:52:08;;;;;;;6.13;1.90;;;;;;;30.86;22.92;100987.53;5074119;28;20080;-74
2021/04/28 09:54:56;;;;;;;6.53;2.20;;;;;;;30.54;22.98;100980.56;5073495;28;20143;-74
2021/04/28 09:57:44;;;;;;;6.65;1.48;;;;;;;30.61;23.00;100981.03;5075301;28;20045;-74
2021/04/28 10:00:32;;;;;;;4.40;1.60;;;;;;;30.84;22.94;100975.88;5073590;28;20377;-72
2021/04/28 10:03:19;;;;;;;4.60;1.63;;;;;;;31.00;22.75;100988.47;5073673;28;20491;-73
2021/04/28 10:06:08;;;;;;;5.05;1.65;;;;;;;31.23;22.98;100987.88;5073221;28;20139;-75
2021/04/28 10:08:55;;;;;;;6.03;1.38;;;;;;;31.37;22.53;100982.38;5074713;28;20185;-74
2021/04/28 10:11:43;;;;;;;9.38;2.13;;;;;;;31.51;22.45;100973.22;5073107;28;20227;-75
2021/04/28 10:14:31;;;;;;;8.75;1.80;;;;;;;31.70;22.52;100981.09;5074449;28;20186;-74
2021/04/28 10:17:19;;;;;;;5.18;1.45;;;;;;;31.78;22.67;100970.47;5074997;28;20461;-75
2021/04/28 10:20:09;;;;;;;8.77;1.75;;;;;;;31.73;22.45;100961.75;5073689;28;20174;-74
2021/04/28 10:23:02;;;;;;;7.32;1.48;;;;;;;31.55;22.78;100953.81;5074022;28;20377;-73
2021/04/28 10:25:50;;;;;;;6.32;1.77;;;;;;;31.24;23.02;100976.84;5073133;28;20445;-74
2021/04/28 10:28:39;;;;;;;6.18;1.75;;;;;;;31.13;23.21;100968.50;5075293;28;20403;-73
2021/04/28 10:31:27;;;;;;;7.47;1.63;;;;;;;31.21;23.43;100973.47;5073789;28;20158;-73
2021/04/28 10:34:24;;;;;;;5.63;1.45;;;;;;;31.33;23.12;100961.72;5074010;28;20142;-73
2021/04/28 10:37:12;;;;;;;8.82;1.77;;;;;;;31.20;23.27;100945.28;5073258;28;20373;-73
2021/04/28 10:40:03;;;;;;;7.10;1.80;;;;;;;30.79;23.38;100945.28;5074534;28;20155;-74
2021/04/28 10:42:51;;;;;;;7.32;3.05;;;;;;;30.59;23.87;100942.13;5073363;28;20074;-74
2021/04/28 10:45:39;;;;;;;10.00;2.30;;;;;;;30.49;23.92;100929.06;5073947;28;20114;-74
2021/04/28 10:48:40;;;;;;;8.48;2.45;;;;;;;30.47;24.24;100927.38;5074312;28;20072;-74
2021/04/28 10:51:36;;;;;;;8.95;1.95;;;;;;;30.55;24.52;100919.63;5074255;28;20404;-74
2021/04/28 10:54:29;;;;;;;8.32;1.90;;;;;;;30.45;24.50;100929.34;5072488;28;20139;-73
2021/04/28 10:57:17;;;;;;;9.20;2.42;;;;;;;30.33;24.93;100927.38;5073227;28;20503;-74
2021/04/28 11:00:26;;;;;;;8.60;1.75;;;;;;;30.19;25.13;100927.41;5074189;28;20045;-75
2021/04/28 11:03:29;;;;;;;6.45;2.08;;;;;;;30.24;25.45;100919.81;5072302;28;20052;-75
2021/04/28 11:06:49;;;;;;;11.02;2.30;;;;;;;30.36;25.47;100929.94;5073296;28;20044;-73
2021/04/28 11:09:37;;;;;;;5.55;1.50;;;;;;;30.32;25.54;100918.38;5072540;28;20138;-74
2021/04/28 11:12:25;;;;;;;10.98;1.77;;;;;;;30.28;25.56;100932.25;5072775;28;20381;-74
2021/04/28 11:15:33;;;;;;;7.97;1.80;;;;;;;30.29;25.50;100934.00;5072367;28;20215;-74
2021/04/28 11:18:31;;;;;;;8.40;1.73;;;;;;;30.35;25.72;100914.56;5058000;28;20496;-72
2021/04/28 11:21:28;;;;;;;5.95;1.65;;;;;;;30.50;25.93;100927.22;5073265;28;20068;-73
2021/04/28 11:24:17;;;;;;;5.97;1.80;;;;;;;30.41;25.48;100927.78;5073261;28;20041;-73
2021/04/28 11:27:04;;;;;;;7.15;1.83;;;;;;;30.24;25.39;100925.28;5073955;28;20037;-72
2021/04/28 11:29:59;;;;;;;5.30;1.92;;;;;;;30.20;25.53;100929.13;5072044;28;20072;-73
2021/04/28 11:33:12;;;;;;;7.55;1.63;;;;;;;30.18;25.67;100942.00;5072354;28;20040;-72
2021/04/28 11:36:15;;;;;;;12.77;2.58;;;;;;;29.99;25.99;100937.72;5074545;28;20075;-72
2021/04/28 11:39:02;;;;;;;8.23;1.80;;;;;;;29.88;26.30;100961.06;5074345;28;20051;-72
2021/04/28 11:41:50;;;;;;;9.15;2.20;;;;;;;29.81;27.10;100974.19;5071980;28;20123;-73
2021/04/28 11:44:39;;;;;;;8.57;2.00;;;;;;;29.67;27.28;100977.75;5071926;28;20052;-74
2021/04/28 11:47:29;;;;;;;9.40;2.42;;;;;;;29.57;27.38;100992.88;5073657;28;20064;-74
2021/04/28 11:50:16;;;;;;;10.50;2.40;;;;;;;29.47;27.87;100988.09;5072530;28;20514;-73
2021/04/28 11:53:04;;;;;;;7.55;2.10;;;;;;;29.43;28.00;100983.78;5072714;28;20098;-73
2021/04/28 11:55:52;;;;;;;9.32;2.28;;;;;;;29.39;28.22;100977.66;5072319;28;20426;-73
2021/04/28 11:58:41;;;;;;;6.70;1.67;;;;;;;29.28;28.44;100978.25;5072466;28;20045;-73
2021/04/28 12:01:30;;;;;;;8.07;2.30;;;;;;;29.13;28.62;100978.28;5072136;28;20075;-73
2021/04/28 12:04:26;;;;;;;5.50;2.47;;;;;;;28.90;29.08;100976.88;5073084;28;20047;-73
2021/04/28 12:07:16;;;;;;;9.30;3.60;;;;;;;28.71;29.40;100977.00;5073264;28;20040;-73
2021/04/28 12:10:06;;;;;;;8.38;2.20;;;;;;;28.57;29.72;100974.19;5058107;28;20060;-73
2021/04/28 12:12:53;;;;;;;8.35;2.17;;;;;;;28.65;30.04;100962.88;5058076;28;20545;-72
2021/04/28 12:15:42;;;;;;;7.70;2.30;;;;;;;28.72;29.76;100986.91;5071744;28;20048;-72
2021/04/28 12:18:33;;;;;;;6.05;2.60;;;;;;;28.74;30.09;100967.81;5073177;28;20045;-72
2021/04/28 12:21:23;;;;;;;6.55;2.08;;;;;;;28.51;30.94;100964.53;5071847;28;20044;-73
2021/04/28 12:24:10;;;;;;;7.93;2.67;;;;;;;28.20;31.94;100950.88;5072098;28;20039;-73
2021/04/28 12:27:13;;;;;;;9.57;2.50;;;;;;;27.99;33.07;100969.19;5072040;28;20477;-72
2021/04/28 12:30:01;;;;;;;6.35;2.55;;;;;;;27.81;33.66;100967.44;5072603;28;20456;-73
2021/04/28 12:32:51;;;;;;;11.45;2.45;;;;;;;27.68;34.05;100953.63;5071684;28;20465;-72
2021/04/28 12:35:40;;;;;;;5.68;2.00;;;;;;;27.54;34.50;100956.19;5072373;28;20033;-73
2021/04/28 12:38:29;;;;;;;9.55;2.42;;;;;;;27.56;35.15;100959.72;5073192;28;20094;-73
2021/04/28 12:41:16;;;;;;;8.23;2.80;;;;;;;27.61;35.43;100979.34;5073161;28;20403;-73
2021/04/28 12:44:05;;;;;;;8.23;2.97;;;;;;;27.79;34.96;100968.47;5058007;28;20072;-73
2021/04/28 12:46:54;;;;;;;9.20;2.65;;;;;;;27.89;35.25;100969.75;5073162;28;20139;-72
2021/04/28 12:49:42;;;;;;;7.63;2.00;;;;;;;28.25;34.33;100962.38;5076377;28;20070;-73
2021/04/28 12:52:33;;;;;;;10.68;2.28;;;;;;;28.76;33.50;100947.75;5076872;28;20060;-74
2021/04/28 12:55:30;;;;;;;9.57;2.88;;;;;;;29.09;31.84;100961.25;5076620;28;20041;-74
2021/04/28 12:58:19;;;;;;;10.40;2.83;;;;;;;29.42;31.18;100944.81;5074364;28;20044;-73
2021/04/28 13:01:15;;;;;;;8.05;2.38;;;;;;;29.48;31.23;100952.59;5074844;28;20064;-74
2021/04/28 13:04:04;;;;;;;8.65;1.65;;;;;;;29.25;29.58;100934.91;5075627;28;20044;-73
2021/04/28 13:07:10;;;;;;;8.77;2.25;;;;;;;29.10;27.79;100897.75;5076448;28;20139;-75